Saint-Stanislas, Canada
Current Conditions -  °F | °C
As of 12:00 PM on Wednesday 22 Oct 2014 (Local Time) from CYRJ Reporting Station
Broken Clouds Broken Clouds  
Wind Chill: 41°   Ceiling: 2500
Heat Index: 41°   Visibility: 40mi
Dew Point: 34°   Wind: 3mph
Humidity: 76%   Direction: 100°E
Pressure: 30.47"   Gusts: NA
Location:  49°N, 72.17°W
Report Text: CYRJ 221600Z 10003KT 030V140 40SM BKN025 05/01 A3047 RMK SC5 SLP327
Loading
Personal Weather Stations






























Interactive Weather Map
Tropical Storm Tracking
New forecast layout! Learn more

10-Day Weather Forecast

Advertisements
Track Severe Weather on mobile